createdAt,value
2022-09-23T00:00:17.738Z,2.30
2022-09-23T00:02:54.863Z,2.65
2022-09-23T00:05:21.549Z,1.95
2022-09-23T00:07:49.194Z,2.92
2022-09-23T00:10:15.779Z,3.58
2022-09-23T00:12:42.353Z,2.78
2022-09-23T00:15:11.194Z,2.15
2022-09-23T00:17:38.276Z,1.70
2022-09-23T00:20:05.220Z,3.65
2022-09-23T00:22:31.812Z,1.98
2022-09-23T00:24:58.412Z,1.77
2022-09-23T00:27:25.059Z,3.80
2022-09-23T00:29:51.540Z,2.78
2022-09-23T00:32:18.192Z,3.00
2022-09-23T00:34:44.872Z,2.40
2022-09-23T00:37:11.877Z,1.88
2022-09-23T00:39:38.493Z,2.13
2022-09-23T00:42:05.342Z,2.47
2022-09-23T00:44:41.758Z,3.60
2022-09-23T00:47:14.870Z,2.20
2022-09-23T00:49:41.621Z,2.25
2022-09-23T00:52:12.613Z,2.38
2022-09-23T00:54:39.392Z,2.13
2022-09-23T00:57:06.981Z,2.05
2022-09-23T00:59:35.009Z,2.10
2022-09-23T01:02:02.047Z,1.85
2022-09-23T01:04:30.649Z,3.33
2022-09-23T01:06:57.266Z,2.20
2022-09-23T01:09:24.360Z,4.03
2022-09-23T01:12:10.143Z,4.25
2022-09-23T01:14:45.867Z,3.63
2022-09-23T01:17:19.566Z,3.15
2022-09-23T01:20:02.355Z,2.77
2022-09-23T01:22:32.040Z,2.55
2022-09-23T01:24:59.485Z,2.33
2022-09-23T01:27:38.443Z,2.92
2022-09-23T01:30:05.034Z,2.33
2022-09-23T01:32:50.513Z,2.15
2022-09-23T01:35:30.363Z,5.15
2022-09-23T01:38:00.141Z,2.50
2022-09-23T01:40:34.078Z,3.28
2022-09-23T01:43:12.441Z,3.45
2022-09-23T01:45:43.444Z,2.63
2022-09-23T01:48:15.949Z,2.08
2022-09-23T01:50:58.680Z,1.80
2022-09-23T01:53:33.031Z,2.13
2022-09-23T01:56:01.799Z,1.98
2022-09-23T01:58:31.862Z,1.77
2022-09-23T02:01:02.891Z,2.15
2022-09-23T02:03:35.435Z,2.17
2022-09-23T02:06:04.545Z,2.72
2022-09-23T02:09:00.804Z,2.47
2022-09-23T02:11:27.789Z,2.28
2022-09-23T02:13:54.656Z,2.35
2022-09-23T02:16:33.908Z,2.38
2022-09-23T02:19:06.917Z,1.88
2022-09-23T02:21:37.484Z,3.45
2022-09-23T02:24:15.083Z,2.97
2022-09-23T02:27:08.007Z,2.80
2022-09-23T02:29:44.291Z,1.50
2022-09-23T02:32:18.056Z,2.70
2022-09-23T02:34:44.680Z,2.25
2022-09-23T02:37:14.268Z,3.90
2022-09-23T02:40:01.800Z,2.85
2022-09-23T02:42:37.979Z,4.22
2022-09-23T02:45:05.404Z,2.88
2022-09-23T02:47:34.227Z,5.38
2022-09-23T02:50:01.485Z,2.10
2022-09-23T02:52:28.490Z,2.47
2022-09-23T02:54:55.080Z,2.45
2022-09-23T02:57:21.741Z,2.20
2022-09-23T02:59:48.729Z,2.00
2022-09-23T03:02:26.591Z,1.85
2022-09-23T03:05:19.184Z,3.83
2022-09-23T03:07:45.668Z,2.35
2022-09-23T03:10:12.252Z,2.85
2022-09-23T03:12:59.504Z,4.47
2022-09-23T03:15:37.678Z,4.57
2022-09-23T03:18:04.170Z,2.65
2022-09-23T03:20:40.844Z,2.45
2022-09-23T03:23:08.974Z,2.47
2022-09-23T03:25:37.381Z,2.22
2022-09-23T03:28:04.746Z,2.72
2022-09-23T03:30:38.196Z,1.98
2022-09-23T03:33:06.157Z,1.33
2022-09-23T03:35:54.226Z,2.55
2022-09-23T03:38:24.536Z,4.75
2022-09-23T03:40:53.228Z,3.10
2022-09-23T03:43:19.911Z,2.25
2022-09-23T03:45:46.956Z,3.00
2022-09-23T03:48:15.701Z,2.15
2022-09-23T03:50:42.292Z,4.10
2022-09-23T03:53:08.855Z,2.78
2022-09-23T03:55:35.713Z,1.70
2022-09-23T03:58:04.943Z,2.58
2022-09-23T04:00:31.580Z,4.22
2022-09-23T04:02:58.079Z,3.97
2022-09-23T04:05:24.592Z,3.00
2022-09-23T04:07:51.291Z,2.13
2022-09-23T04:10:17.869Z,3.13
2022-09-23T04:12:44.493Z,2.00
2022-09-23T04:15:11.763Z,2.65
2022-09-23T04:17:38.352Z,2.28
2022-09-23T04:20:05.095Z,1.67
2022-09-23T04:22:33.045Z,2.72
2022-09-23T04:24:59.645Z,2.30
2022-09-23T04:27:26.203Z,2.60
2022-09-23T04:29:52.926Z,3.90
2022-09-23T04:32:19.604Z,2.30
2022-09-23T04:34:48.216Z,2.97
2022-09-23T04:37:14.780Z,3.70
2022-09-23T04:39:41.395Z,2.15
2022-09-23T04:42:08.177Z,2.90
2022-09-23T04:44:35.015Z,2.42
2022-09-23T04:47:01.629Z,2.58
2022-09-23T04:49:32.917Z,3.13
2022-09-23T04:51:59.477Z,3.03
2022-09-23T04:54:26.299Z,2.40
2022-09-23T04:56:52.938Z,4.30
2022-09-23T04:59:19.472Z,2.13
2022-09-23T05:01:46.085Z,2.25
2022-09-23T05:04:14.331Z,3.70
2022-09-23T05:06:40.846Z,2.03
2022-09-23T05:09:08.692Z,2.50
2022-09-23T05:11:35.922Z,1.92
2022-09-23T05:14:02.714Z,2.30
2022-09-23T05:16:29.720Z,2.65
2022-09-23T05:18:57.055Z,3.67
2022-09-23T05:21:24.722Z,2.22
2022-09-23T05:23:55.243Z,1.75
2022-09-23T05:26:26.083Z,2.70
2022-09-23T05:28:53.994Z,2.20
2022-09-23T05:31:21.891Z,2.88
2022-09-23T05:33:54.347Z,2.38
2022-09-23T05:36:21.641Z,3.05
2022-09-23T05:38:49.945Z,2.33
2022-09-23T05:41:17.688Z,2.90
2022-09-23T05:43:44.194Z,1.88
2022-09-23T05:46:12.092Z,2.30
2022-09-23T05:48:39.279Z,2.72
2022-09-23T05:51:12.779Z,2.22
2022-09-23T05:53:40.241Z,5.05
2022-09-23T05:56:06.852Z,3.72
2022-09-23T05:58:33.358Z,3.25
2022-09-23T06:00:59.913Z,2.67
2022-09-23T06:03:26.519Z,4.53
2022-09-23T06:05:54.349Z,4.28
2022-09-23T06:08:21.869Z,4.28
2022-09-23T06:10:53.519Z,2.97
2022-09-23T06:13:21.027Z,2.22
2022-09-23T06:15:47.806Z,4.05
2022-09-23T06:18:14.448Z,2.40
2022-09-23T06:20:40.968Z,3.63
2022-09-23T06:23:10.517Z,4.47
2022-09-23T06:25:40.989Z,5.32
2022-09-23T06:28:10.896Z,6.53
2022-09-23T06:30:40.290Z,9.45
2022-09-23T06:33:06.851Z,7.45
2022-09-23T06:35:33.377Z,8.25
2022-09-23T06:38:03.267Z,9.38
2022-09-23T06:40:29.927Z,10.02
2022-09-23T06:43:05.618Z,10.73
2022-09-23T06:45:32.141Z,22.85
2022-09-23T06:47:58.710Z,37.25
2022-09-23T06:50:26.619Z,48.92
2022-09-23T06:52:56.510Z,62.38
2022-09-23T06:55:24.340Z,69.25
2022-09-23T06:57:51.034Z,59.63
2022-09-23T07:00:20.146Z,56.30
2022-09-23T07:02:47.220Z,53.75
2022-09-23T07:05:15.717Z,54.72
2022-09-23T07:07:42.376Z,52.90
2022-09-23T07:10:11.493Z,54.20
2022-09-23T07:12:38.021Z,45.95
2022-09-23T07:15:05.056Z,45.08
2022-09-23T07:17:31.664Z,48.30
2022-09-23T07:19:58.556Z,43.88
2022-09-23T07:22:25.733Z,36.00
2022-09-23T07:24:54.167Z,43.95
2022-09-23T07:27:20.685Z,39.55
2022-09-23T07:29:51.104Z,39.78
2022-09-23T07:32:18.658Z,35.75
2022-09-23T07:34:47.112Z,38.25
2022-09-23T07:37:14.530Z,41.90
2022-09-23T07:39:41.928Z,33.53
2022-09-23T07:42:08.726Z,35.22
2022-09-23T07:44:35.607Z,42.45
2022-09-23T07:47:02.185Z,31.55
2022-09-23T07:49:28.694Z,31.73
2022-09-23T07:51:55.351Z,25.83
2022-09-23T07:54:21.992Z,31.85
2022-09-23T07:56:48.591Z,28.35
2022-09-23T07:59:18.289Z,26.45
2022-09-23T08:01:46.368Z,29.80
2022-09-23T08:04:14.715Z,28.38
2022-09-23T08:06:42.630Z,28.25
2022-09-23T08:09:09.600Z,27.83
2022-09-23T08:11:41.932Z,29.02
2022-09-23T08:14:09.442Z,29.60
2022-09-23T08:16:39.476Z,25.35
2022-09-23T08:19:06.598Z,27.50
2022-09-23T08:21:33.132Z,22.48
2022-09-23T08:23:59.707Z,23.35
2022-09-23T08:26:29.427Z,24.65
2022-09-23T08:28:56.492Z,19.30
2022-09-23T08:31:23.389Z,25.58
2022-09-23T08:33:56.489Z,24.00
2022-09-23T08:36:23.661Z,20.15
2022-09-23T08:38:50.378Z,23.92
2022-09-23T08:41:16.823Z,23.85
2022-09-23T08:43:47.392Z,25.38
2022-09-23T08:46:18.708Z,20.25
2022-09-23T08:48:46.881Z,22.83
2022-09-23T08:51:14.931Z,18.42
2022-09-23T08:53:42.332Z,17.88
2022-09-23T08:56:14.350Z,22.60
2022-09-23T08:58:46.598Z,20.83
2022-09-23T09:01:13.139Z,16.90
2022-09-23T09:03:53.862Z,20.98
2022-09-23T09:06:27.916Z,19.08
2022-09-23T09:11:25.996Z,21.92
2022-09-23T09:14:18.648Z,21.27
2022-09-23T09:16:59.838Z,19.52
2022-09-23T09:19:45.376Z,20.88
2022-09-23T09:22:15.825Z,20.20
2022-09-23T09:24:45.702Z,21.60
2022-09-23T09:27:12.950Z,21.15
2022-09-23T09:29:42.430Z,21.13
2022-09-23T09:32:29.509Z,17.48
2022-09-23T09:34:59.753Z,25.00
2022-09-23T09:37:33.649Z,14.38
2022-09-23T09:40:00.286Z,17.77
2022-09-23T09:42:30.922Z,17.20
2022-09-23T09:45:11.078Z,14.95
2022-09-23T09:47:49.803Z,15.23
2022-09-23T09:50:22.126Z,19.95
2022-09-23T09:52:48.969Z,15.15
2022-09-23T09:55:26.405Z,16.58
2022-09-23T09:58:01.735Z,13.88
2022-09-23T10:00:28.585Z,18.92
2022-09-23T10:02:56.293Z,13.88
2022-09-23T10:05:27.231Z,17.67
2022-09-23T10:07:54.610Z,19.33
2022-09-23T10:10:39.517Z,14.00
2022-09-23T10:13:15.091Z,12.80
2022-09-23T10:15:44.999Z,14.98
2022-09-23T10:18:42.157Z,12.35
2022-09-23T10:21:15.707Z,15.45
2022-09-23T10:23:43.842Z,16.17
2022-09-23T10:26:12.208Z,16.25
2022-09-23T10:28:50.465Z,15.98
2022-09-23T10:31:24.917Z,15.00
2022-09-23T10:33:54.643Z,15.05
2022-09-23T10:36:21.629Z,15.95
2022-09-23T10:38:49.885Z,12.23
2022-09-23T10:41:54.885Z,13.95
2022-09-23T10:45:06.249Z,12.85
2022-09-23T10:47:36.157Z,14.40
2022-09-23T10:50:20.731Z,18.02
2022-09-23T10:53:16.694Z,11.60
2022-09-23T10:55:48.375Z,10.07
2022-09-23T10:58:18.045Z,16.77
2022-09-23T11:00:44.656Z,13.32
2022-09-23T11:03:31.650Z,13.45
2022-09-23T11:06:17.911Z,15.85
2022-09-23T11:08:50.719Z,14.98
2022-09-23T11:11:34.970Z,13.88
2022-09-23T11:14:07.876Z,11.27
2022-09-23T11:16:45.000Z,12.07
2022-09-23T11:19:12.603Z,10.40
2022-09-23T11:21:58.340Z,12.30
2022-09-23T11:24:31.248Z,12.88
2022-09-23T11:27:05.176Z,10.98
2022-09-23T11:29:42.500Z,9.10
2022-09-23T11:32:17.320Z,12.45
2022-09-23T11:34:58.987Z,10.25
2022-09-23T11:37:28.416Z,13.65
2022-09-23T11:40:04.200Z,11.60
2022-09-23T11:42:33.237Z,11.73
2022-09-23T11:45:02.218Z,14.07
2022-09-23T11:47:39.782Z,11.27
2022-09-23T11:50:16.088Z,10.15
2022-09-23T11:52:45.062Z,14.57
2022-09-23T11:55:22.131Z,10.35
2022-09-23T11:57:52.265Z,12.68
2022-09-23T12:00:21.333Z,11.13
2022-09-23T12:03:05.748Z,9.07
2022-09-23T12:05:35.488Z,12.18
2022-09-23T12:08:03.617Z,7.90
2022-09-23T12:10:37.541Z,9.85
2022-09-23T12:13:10.863Z,12.02
2022-09-23T12:15:55.867Z,8.63
2022-09-23T12:18:42.149Z,11.27
2022-09-23T12:21:49.398Z,10.18
2022-09-23T12:24:28.976Z,8.82
2022-09-23T12:26:58.949Z,10.40
2022-09-23T12:31:54.336Z,10.95
2022-09-23T12:34:20.952Z,8.57
2022-09-23T12:36:47.721Z,9.70
2022-09-23T12:39:20.650Z,14.82
2022-09-23T12:41:49.358Z,11.77
2022-09-23T12:44:29.375Z,10.70
2022-09-23T12:47:14.566Z,10.13
2022-09-23T12:49:42.128Z,10.60
2022-09-23T12:52:12.626Z,14.48
2022-09-23T12:54:40.108Z,12.73
2022-09-23T12:57:09.699Z,10.73
2022-09-23T12:59:51.223Z,9.75
2022-09-23T13:02:27.183Z,9.50
2022-09-23T13:05:17.900Z,12.20
2022-09-23T13:07:46.207Z,6.57
2022-09-23T13:10:16.060Z,9.40
2022-09-23T13:12:43.187Z,9.65
2022-09-23T13:15:18.103Z,9.68
2022-09-23T13:17:45.050Z,10.50
2022-09-23T13:20:20.781Z,10.32
2022-09-23T13:22:51.700Z,10.65
2022-09-23T13:25:29.338Z,12.60
2022-09-23T13:27:57.623Z,9.77
2022-09-23T13:30:26.774Z,12.77
2022-09-23T13:33:01.516Z,9.52
2022-09-23T13:35:36.787Z,10.60
2022-09-23T13:38:20.035Z,10.98
2022-09-23T13:40:47.223Z,5.80
2022-09-23T13:43:22.797Z,8.70
2022-09-23T13:45:50.008Z,7.22
2022-09-23T13:48:16.914Z,6.43
2022-09-23T13:50:45.248Z,7.72
2022-09-23T13:53:13.177Z,8.95
2022-09-23T13:55:41.307Z,9.20
2022-09-23T13:58:13.734Z,7.85
2022-09-23T14:00:43.242Z,8.45
2022-09-23T14:03:25.067Z,8.15
2022-09-23T14:05:52.893Z,5.65
2022-09-23T14:08:19.890Z,7.40
2022-09-23T14:10:46.938Z,6.32
2022-09-23T14:13:25.977Z,9.23
2022-09-23T14:15:54.999Z,5.60
2022-09-23T14:18:27.681Z,6.15
2022-09-23T14:20:54.198Z,7.72
2022-09-23T14:23:20.700Z,8.25
2022-09-23T14:25:47.559Z,6.93
2022-09-23T14:28:16.075Z,7.30
2022-09-23T14:30:46.093Z,9.65
2022-09-23T14:33:17.901Z,7.22
2022-09-23T14:35:48.095Z,7.68
2022-09-23T14:38:39.725Z,6.22
2022-09-23T14:41:17.331Z,9.10
2022-09-23T14:44:02.769Z,5.65
2022-09-23T14:46:34.202Z,6.07
2022-09-23T14:49:02.741Z,7.47
2022-09-23T14:51:34.995Z,6.00
2022-09-23T14:54:20.016Z,7.28
2022-09-23T14:56:47.284Z,6.70
2022-09-23T14:59:25.737Z,8.20
2022-09-23T15:01:52.217Z,6.25
2022-09-23T15:04:21.777Z,6.43
2022-09-23T15:06:53.070Z,5.80
2022-09-23T15:09:39.901Z,5.18
2022-09-23T15:12:08.367Z,7.07
2022-09-23T15:14:38.663Z,6.03
2022-09-23T15:17:07.053Z,7.32
2022-09-23T15:19:35.262Z,7.63
2022-09-23T15:22:02.330Z,6.68
2022-09-23T15:24:34.149Z,5.78
2022-09-23T15:27:00.688Z,5.90
2022-09-23T15:29:27.493Z,6.00
2022-09-23T15:31:55.148Z,6.90
2022-09-23T15:34:21.715Z,4.60
2022-09-23T15:36:48.476Z,8.75
2022-09-23T15:39:15.184Z,6.85
2022-09-23T15:41:43.534Z,5.20
2022-09-23T15:44:14.354Z,5.70
2022-09-23T15:46:45.585Z,6.75
2022-09-23T15:49:30.855Z,5.93
2022-09-23T15:51:59.258Z,7.15
2022-09-23T15:54:26.177Z,5.75
2022-09-23T15:56:52.866Z,6.30
2022-09-23T15:59:21.402Z,5.60
2022-09-23T16:01:47.995Z,5.53
2022-09-23T16:04:15.900Z,7.88
2022-09-23T16:06:44.613Z,5.00
2022-09-23T16:09:13.422Z,8.07
2022-09-23T16:11:42.576Z,6.38
2022-09-23T16:14:16.067Z,5.53
2022-09-23T16:16:45.032Z,5.85
2022-09-23T16:19:12.406Z,5.97
2022-09-23T16:21:40.838Z,4.50
2022-09-23T16:24:15.284Z,5.88
2022-09-23T16:26:43.167Z,3.85
2022-09-23T16:29:10.548Z,3.78
2022-09-23T16:31:38.043Z,8.35
2022-09-23T16:34:04.984Z,3.80
2022-09-23T16:36:32.772Z,7.22
2022-09-23T16:39:00.408Z,5.82
2022-09-23T16:41:31.606Z,7.22
2022-09-23T16:44:00.498Z,3.25
2022-09-23T16:46:27.969Z,5.15
2022-09-23T16:48:55.683Z,4.80
2022-09-23T16:51:23.936Z,4.22
2022-09-23T16:53:51.420Z,7.05
2022-09-23T16:56:24.260Z,7.07
2022-09-23T16:58:54.572Z,6.88
2022-09-23T17:01:40.869Z,4.68
2022-09-23T17:04:10.739Z,5.93
2022-09-23T17:06:44.231Z,4.22
2022-09-23T17:09:11.072Z,5.13
2022-09-23T17:11:38.171Z,5.53
2022-09-23T17:14:05.330Z,5.45
2022-09-23T17:16:32.748Z,4.97
2022-09-23T17:18:59.415Z,5.43
2022-09-23T17:21:26.969Z,5.57
2022-09-23T17:23:54.021Z,4.35
2022-09-23T17:26:23.245Z,6.65
2022-09-23T17:28:56.874Z,4.97
2022-09-23T17:31:24.710Z,4.50
2022-09-23T17:33:51.958Z,4.47
2022-09-23T17:36:18.980Z,6.03
2022-09-23T17:38:46.079Z,7.95
2022-09-23T17:41:13.608Z,4.82
2022-09-23T17:43:40.580Z,7.32
2022-09-23T17:46:11.267Z,5.13
2022-09-23T17:48:38.533Z,4.97
2022-09-23T17:51:06.667Z,6.65
2022-09-23T17:53:35.029Z,4.60
2022-09-23T17:56:05.738Z,3.67
2022-09-23T17:58:33.535Z,4.05
2022-09-23T18:01:00.531Z,5.63
2022-09-23T18:03:27.666Z,4.45
2022-09-23T18:05:54.296Z,3.90
2022-09-23T18:08:21.173Z,6.28
2022-09-23T18:10:47.867Z,3.28
2022-09-23T18:13:14.411Z,6.57
2022-09-23T18:15:40.978Z,7.63
2022-09-23T18:18:07.763Z,5.47
2022-09-23T18:20:34.260Z,4.45
2022-09-23T18:23:00.872Z,3.78
2022-09-23T18:25:39.104Z,5.03
2022-09-23T18:28:06.540Z,5.60
2022-09-23T18:30:33.647Z,3.22
2022-09-23T18:33:00.329Z,4.55
2022-09-23T18:35:28.331Z,4.65
2022-09-23T18:37:56.084Z,5.85
2022-09-23T18:40:22.791Z,3.00
2022-09-23T18:42:50.336Z,4.80
2022-09-23T18:45:17.059Z,3.28
2022-09-23T18:48:02.270Z,4.65
2022-09-23T18:50:43.110Z,4.70
2022-09-23T18:53:10.276Z,4.50
2022-09-23T18:55:36.827Z,5.15
2022-09-23T18:58:03.539Z,7.03
2022-09-23T19:00:30.204Z,3.78
2022-09-23T19:02:57.669Z,5.20
2022-09-23T19:05:24.247Z,4.35
2022-09-23T19:07:51.115Z,4.63
2022-09-23T19:10:19.221Z,4.07
2022-09-23T19:12:46.635Z,3.28
2022-09-23T19:15:14.223Z,3.22
2022-09-23T19:17:40.813Z,3.50
2022-09-23T19:20:07.721Z,4.20
2022-09-23T19:22:34.520Z,3.92
2022-09-23T19:25:01.014Z,3.55
2022-09-23T19:27:27.684Z,4.45
2022-09-23T19:29:54.972Z,5.90
2022-09-23T19:32:24.449Z,5.30
2022-09-23T19:34:52.130Z,4.28
2022-09-23T19:37:18.652Z,3.65
2022-09-23T19:39:45.870Z,4.90
2022-09-23T19:42:12.752Z,4.63
2022-09-23T19:44:40.946Z,4.50
2022-09-23T19:47:07.544Z,3.60
2022-09-23T19:49:34.153Z,4.55
2022-09-23T19:52:00.789Z,3.75
2022-09-23T19:54:27.702Z,4.65
2022-09-23T19:56:54.696Z,6.70
2022-09-23T19:59:21.248Z,4.22
2022-09-23T20:01:48.423Z,4.28
2022-09-23T20:04:15.907Z,3.28
2022-09-23T20:06:42.944Z,4.05
2022-09-23T20:09:09.978Z,4.70
2022-09-23T20:11:36.596Z,7.35
2022-09-23T20:14:05.843Z,4.22
2022-09-23T20:16:33.505Z,4.22
2022-09-23T20:19:00.739Z,2.75
2022-09-23T20:21:28.315Z,4.35
2022-09-23T20:23:55.289Z,4.00
2022-09-23T20:26:40.568Z,4.10
2022-09-23T20:29:08.870Z,5.22
2022-09-23T20:31:35.911Z,4.40
2022-09-23T20:34:05.727Z,4.05
2022-09-23T20:36:33.194Z,5.47
2022-09-23T20:39:01.026Z,6.15
2022-09-23T20:41:28.263Z,7.18
2022-09-23T20:43:54.923Z,4.20
2022-09-23T20:46:24.451Z,5.85
2022-09-23T20:48:51.116Z,6.10
2022-09-23T20:51:17.875Z,3.85
2022-09-23T20:53:44.543Z,4.05
2022-09-23T20:56:11.173Z,4.38
2022-09-23T20:58:37.763Z,5.13
2022-09-23T21:01:05.990Z,5.63
2022-09-23T21:03:32.819Z,4.30
2022-09-23T21:06:00.277Z,4.15
2022-09-23T21:08:26.855Z,4.20
2022-09-23T21:10:54.357Z,3.33
2022-09-23T21:13:21.494Z,5.22
2022-09-23T21:15:50.888Z,4.20
2022-09-23T21:18:22.244Z,3.20
2022-09-23T21:20:55.766Z,3.20
2022-09-23T21:23:26.448Z,4.70
2022-09-23T21:25:53.608Z,4.22
2022-09-23T21:28:20.770Z,3.75
2022-09-23T21:30:51.986Z,3.50
2022-09-23T21:33:18.779Z,3.22
2022-09-23T21:35:45.292Z,3.17
2022-09-23T21:38:11.824Z,4.40
2022-09-23T21:40:56.615Z,4.25
2022-09-23T21:43:27.576Z,3.95
2022-09-23T21:46:00.726Z,8.15
2022-09-23T21:48:28.203Z,3.80
2022-09-23T21:50:58.636Z,5.13
2022-09-23T21:53:26.008Z,5.47
2022-09-23T21:55:52.562Z,3.65
2022-09-23T21:58:19.084Z,3.08
2022-09-23T22:00:45.971Z,4.47
2022-09-23T22:03:12.583Z,5.85
2022-09-23T22:05:41.699Z,5.07
2022-09-23T22:08:09.183Z,4.78
2022-09-23T22:10:36.525Z,3.80
2022-09-23T22:13:03.421Z,3.10
2022-09-23T22:15:33.532Z,5.15
2022-09-23T22:18:00.190Z,3.95
2022-09-23T22:20:27.106Z,4.22
2022-09-23T22:22:53.717Z,5.50
2022-09-23T22:25:21.171Z,3.75
2022-09-23T22:28:06.537Z,3.55
2022-09-23T22:30:51.464Z,4.25
2022-09-23T22:33:18.035Z,3.47
2022-09-23T22:35:44.531Z,3.50
2022-09-23T22:38:11.182Z,3.78
2022-09-23T22:40:39.612Z,4.70
2022-09-23T22:43:06.153Z,4.18
2022-09-23T22:45:32.823Z,3.40
2022-09-23T22:47:59.360Z,4.10
2022-09-23T22:50:25.857Z,3.65
2022-09-23T22:52:52.438Z,3.60
2022-09-23T22:55:19.074Z,4.33
2022-09-23T22:57:45.667Z,5.32
2022-09-23T23:00:12.468Z,3.78
2022-09-23T23:02:40.310Z,5.35
2022-09-23T23:05:08.460Z,4.65
2022-09-23T23:07:36.252Z,3.70
2022-09-23T23:10:04.817Z,7.65
2022-09-23T23:12:33.455Z,4.68
2022-09-23T23:15:00.039Z,5.05
2022-09-23T23:17:26.563Z,4.57
2022-09-23T23:19:53.881Z,5.15
2022-09-23T23:22:20.415Z,5.05
2022-09-23T23:24:46.966Z,5.75
2022-09-23T23:27:13.490Z,6.80
2022-09-23T23:29:40.024Z,5.10
2022-09-23T23:32:07.689Z,5.70
2022-09-23T23:34:34.185Z,4.55
2022-09-23T23:37:00.809Z,5.43
2022-09-23T23:39:27.480Z,6.00
2022-09-23T23:41:55.115Z,4.88
2022-09-23T23:44:23.662Z,5.20
2022-09-23T23:46:50.350Z,6.13
2022-09-23T23:49:17.087Z,3.92
2022-09-23T23:51:43.754Z,5.15
2022-09-23T23:54:11.469Z,5.78
2022-09-23T23:56:38.300Z,8.38
2022-09-23T23:59:05.401Z,6.22
